This is the latest recevied weather packets stored in our database for station/object DL7GAI-7. If no packets are shown the sender has not sent any weather packets the latest 1 day(s).
| Time | Temp. | Humidity | Pressure | Rain* | Wind** | Luminosity | Snow |
|---|---|---|---|---|---|---|---|
| 1778000771 | 16.67° C | 65% | 1007.2 hPa | 0 mm | 2.68 m/s, 315° | - | - |
| 1777999934 | 18.33° C | 53% | 1006.8 hPa | 0 mm | 1.79 m/s, 270° | - | - |
| 1777999166 | 18.33° C | 53% | 1006.8 hPa | 0 mm | 1.79 m/s, 270° | - | - |
| 1777998330 | 18.33° C | 53% | 1006.8 hPa | 0 mm | 1.79 m/s, 270° | - | - |
| 1777997500 | 18.33° C | 53% | 1006.8 hPa | 0 mm | 1.79 m/s, 270° | - | - |
| 1777996760 | 17.78° C | 66% | 1006.7 hPa | 0 mm | 1.79 m/s, 315° | - | - |
| 1777995931 | 17.78° C | 66% | 1006.7 hPa | 0 mm | 1.79 m/s, 315° | - | - |
| 1777995125 | 16.67° C | 70% | 1007.2 hPa | 0 mm | 0.89 m/s, 315° | - | - |
| 1777994320 | 16.67° C | 70% | 1007.2 hPa | 0 mm | 0.89 m/s, 315° | - | - |
| 1777993463 | 16.11° C | 72% | 1007.4 hPa | 0 mm | 2.68 m/s, 270° | - | - |
| 1777992642 | 16.11° C | 72% | 1007.4 hPa | 0 mm | 2.68 m/s, 270° | - | - |
| 1777991861 | 16.11° C | 72% | 1007.4 hPa | 0 mm | 2.68 m/s, 270° | - | - |
| 1777991100 | 14.44° C | 78% | 1008.2 hPa | 0 mm | 2.68 m/s, 270° | - | - |
| 1777990370 | 14.44° C | 78% | 1008.2 hPa | 0 mm | 2.68 m/s, 270° | - | - |
| 1777989520 | 14.44° C | 78% | 1008.2 hPa | 0 mm | 2.68 m/s, 270° | - | - |
| 1777988762 | 14.44° C | 78% | 1008.2 hPa | 0 mm | 2.68 m/s, 270° | - | - |
| 1777987920 | 14.44° C | 78% | 1008.2 hPa | 0 mm | 2.68 m/s, 270° | - | - |
| 1777987073 | 14.44° C | 78% | 1008.2 hPa | 0 mm | 2.68 m/s, 270° | - | - |
| 1777986255 | 13.89° C | 80% | 1008.3 hPa | 0.51 mm | 1.79 m/s, 315° | - | - |
| 1777985430 | 13.89° C | 80% | 1008.3 hPa | 0.51 mm | 1.79 m/s, 315° | - | - |
| 1777984586 | 13.89° C | 80% | 1008.3 hPa | 0.51 mm | 1.79 m/s, 315° | - | - |
| 1777983703 | 13.89° C | 80% | 1008.5 hPa | 0.25 mm | 0.89 m/s, 270° | - | - |
| 1777982885 | 13.89° C | 80% | 1008.5 hPa | 0.25 mm | 0.89 m/s, 270° | - | - |
| 1777982071 | 13.89° C | 79% | 1008.9 hPa | 0 mm | 0.89 m/s, 225° | - | - |
| 1777981195 | 13.89° C | 79% | 1008.9 hPa | 0 mm | 0.89 m/s, 225° | - | - |
* Rain latest hour (hover to see other rain measurements)
** Current wind speed in m/s (hover to see current wind gust speed)